createdAt,value
2022-09-05T00:04:28.839Z,8.07
2022-09-05T00:12:38.499Z,7.45
2022-09-05T00:24:37.609Z,7.20
2022-09-05T00:30:23.523Z,8.13
2022-09-05T00:37:58.430Z,9.57
2022-09-05T00:46:10.622Z,7.93
2022-09-05T00:54:41.033Z,8.68
2022-09-05T01:03:20.907Z,7.82
2022-09-05T01:11:40.898Z,9.82
2022-09-05T01:20:19.047Z,9.30
2022-09-05T01:29:15.492Z,9.13
2022-09-05T01:37:06.199Z,11.75
2022-09-05T01:45:21.786Z,12.05
2022-09-05T01:53:41.830Z,12.75
2022-09-05T02:02:13.740Z,12.38
2022-09-05T02:10:39.902Z,11.77
2022-09-05T02:18:57.561Z,11.98
2022-09-05T02:27:45.857Z,12.88
2022-09-05T02:36:07.655Z,11.50
2022-09-05T02:45:08.327Z,12.30
2022-09-05T02:57:27.198Z,10.45
2022-09-05T03:01:16.975Z,4.80
2022-09-05T03:09:39.674Z,5.40
2022-09-05T03:18:23.677Z,4.63
2022-09-05T03:26:46.227Z,6.00
2022-09-05T03:35:32.107Z,7.73
2022-09-05T03:44:16.651Z,8.57
2022-09-05T03:57:14.074Z,10.00
2022-09-05T04:01:58.890Z,10.20
2022-09-05T04:09:50.941Z,11.32
2022-09-05T04:18:03.771Z,10.70
2022-09-05T04:26:23.169Z,10.93
2022-09-05T04:34:49.906Z,11.32
2022-09-05T04:42:56.826Z,11.20
2022-09-05T04:51:13.298Z,11.52
2022-09-05T05:03:29.906Z,9.32
2022-09-05T05:17:55.226Z,9.30
2022-09-05T05:24:45.096Z,10.27
2022-09-05T05:32:53.291Z,9.63
2022-09-05T05:41:10.958Z,11.60
2022-09-05T05:49:42.346Z,12.13
2022-09-05T05:58:20.746Z,8.95
2022-09-05T06:06:47.393Z,9.77
2022-09-05T06:15:44.112Z,8.60
2022-09-05T06:24:27.966Z,7.20
2022-09-05T06:33:00.395Z,6.93
2022-09-05T06:41:25.563Z,5.73
2022-09-05T06:49:55.328Z,5.60
2022-09-05T06:58:31.183Z,5.05
2022-09-05T07:07:02.373Z,5.63
2022-09-05T07:15:21.334Z,4.80
2022-09-05T07:23:52.740Z,5.10
2022-09-05T07:32:22.422Z,4.22
2022-09-05T07:40:35.384Z,3.83
2022-09-05T07:48:45.000Z,3.80
2022-09-05T07:57:25.504Z,4.35
2022-09-05T08:05:34.541Z,3.90
2022-09-05T08:14:06.632Z,4.28
2022-09-05T08:22:25.164Z,2.90
2022-09-05T08:30:40.793Z,2.85
2022-09-05T08:38:47.693Z,2.58
2022-09-05T08:47:03.156Z,3.45
2022-09-05T08:55:19.329Z,2.75
2022-09-05T09:03:32.623Z,2.10
2022-09-05T09:11:46.292Z,2.13
2022-09-05T09:20:07.765Z,3.05
2022-09-05T09:28:47.728Z,2.60
2022-09-05T09:37:31.966Z,2.33
2022-09-05T09:46:19.014Z,2.28
2022-09-05T09:54:57.228Z,1.50
2022-09-05T10:10:34.136Z,2.20
2022-09-05T10:12:20.930Z,1.52
2022-09-05T10:21:16.709Z,1.90
2022-09-05T10:29:46.323Z,2.75
2022-09-05T10:38:10.249Z,2.58
2022-09-05T10:46:49.451Z,1.85
2022-09-05T10:55:27.933Z,1.20
2022-09-05T11:11:49.811Z,1.42
2022-09-05T11:20:27.676Z,1.25
2022-09-05T11:28:57.573Z,1.65
2022-09-05T11:39:52.868Z,2.50
2022-09-05T11:46:15.883Z,2.00
2022-09-05T11:54:55.072Z,1.55
2022-09-05T12:03:59.493Z,1.47
2022-09-05T12:12:41.264Z,1.73
2022-09-05T12:21:01.927Z,1.70
2022-09-05T12:29:33.553Z,1.92
2022-09-05T12:40:52.913Z,1.92
2022-09-05T12:46:24.797Z,1.70
2022-09-05T12:54:36.356Z,1.77
2022-09-05T13:03:13.607Z,1.70
2022-09-05T13:14:58.327Z,2.00
2022-09-05T13:19:51.551Z,1.55
2022-09-05T13:28:05.195Z,2.97
2022-09-05T13:38:21.303Z,1.70
2022-09-05T13:44:46.604Z,1.63
2022-09-05T13:52:59.897Z,1.55
2022-09-05T14:01:32.239Z,2.28
2022-09-05T14:18:22.286Z,2.20
2022-09-05T14:26:32.744Z,2.20
2022-09-05T14:37:43.862Z,2.00
2022-09-05T14:43:43.180Z,2.15
2022-09-05T14:51:54.993Z,2.25
2022-09-05T15:02:52.712Z,2.05
2022-09-05T15:10:54.585Z,2.08
2022-09-05T15:17:05.888Z,2.05
2022-09-05T15:25:21.711Z,2.20
2022-09-05T15:33:28.797Z,2.50
2022-09-05T15:41:43.281Z,2.15
2022-09-05T15:49:55.963Z,2.45
2022-09-05T15:58:07.638Z,2.30
2022-09-05T16:10:35.149Z,2.65
2022-09-05T16:16:33.699Z,2.90
2022-09-05T16:23:40.618Z,2.80
2022-09-05T16:31:55.809Z,4.50
2022-09-05T16:40:08.655Z,4.43
2022-09-05T16:48:33.224Z,4.07
2022-09-05T16:56:41.700Z,4.78
2022-09-05T17:05:04.484Z,4.82
2022-09-05T17:13:16.769Z,5.65
2022-09-05T17:21:45.524Z,5.63
2022-09-05T17:31:14.488Z,4.28
2022-09-05T17:39:03.951Z,4.70
2022-09-05T17:47:16.078Z,5.22
2022-09-05T17:55:21.719Z,5.47
2022-09-05T18:04:17.082Z,7.45
2022-09-05T18:13:14.254Z,7.53
2022-09-05T18:21:12.186Z,6.65
2022-09-05T18:38:27.531Z,5.78
2022-09-05T18:46:58.569Z,5.60
2022-09-05T18:55:07.954Z,4.80
2022-09-05T19:03:38.626Z,4.57
2022-09-05T19:11:53.903Z,6.40
2022-09-05T19:20:31.237Z,4.88
2022-09-05T19:36:59.060Z,3.72
2022-09-05T19:37:38.580Z,4.40
2022-09-05T19:47:48.314Z,3.90
2022-09-05T19:54:06.064Z,4.95
2022-09-05T20:02:20.234Z,4.60
2022-09-05T20:10:31.749Z,4.38
2022-09-05T20:18:43.039Z,3.90
2022-09-05T20:26:51.709Z,4.00
2022-09-05T20:40:25.415Z,3.90
2022-09-05T20:43:57.998Z,3.55
2022-09-05T20:54:15.236Z,3.53
2022-09-05T21:00:34.269Z,3.50
2022-09-05T21:08:40.420Z,4.50
2022-09-05T21:16:50.510Z,4.20
2022-09-05T21:25:11.807Z,4.38
2022-09-05T21:33:44.472Z,3.90
2022-09-05T21:41:53.231Z,4.55
2022-09-05T21:50:30.533Z,4.07
2022-09-05T21:59:24.054Z,4.15
2022-09-05T22:07:07.226Z,4.00
2022-09-05T22:15:27.470Z,3.70
2022-09-05T22:23:38.652Z,4.30
2022-09-05T22:31:44.073Z,4.10
2022-09-05T22:39:52.244Z,5.35
2022-09-05T22:47:57.969Z,4.75
2022-09-05T22:56:08.716Z,4.53
2022-09-05T23:04:14.130Z,3.90
2022-09-05T23:12:22.188Z,3.95
2022-09-05T23:20:29.844Z,4.50
2022-09-05T23:28:42.689Z,3.83
2022-09-05T23:44:56.273Z,4.38
2022-09-05T23:53:06.643Z,4.28
